<?xml version="1.0" encoding="UTF-8" standalone="no" ?>
<gpx xmlns="http://www.topografix.com/GPX/1/1" xmlns:xsi="http://www.w3.org/2001/XMLSchema-instance" xsi:schemaLocation="http://www.topografix.com/GPX/1/1 http://www.topografix.com/GPX/1/1/gpx.xsd" version="1.1" creator="VisuGPX - https://www.visugpx.com">
  <metadata>
    <name>Saint Urciz- La Chastelle</name>
  </metadata>
  <trk>
    <name><![CDATA[14243736-Saint Urciz- La Chastelle]]></name>
    <extensions>
      <line xmlns="http://www.topografix.com/GPX/gpx_style/0/2">
        <color>0000FF</color>
        <width>4</width>
      </line>
    </extensions>
    <trkseg>
      <trkpt lat="44.69779" lon="3.00495">
        <ele>1110</ele>
        <time>2022-02-09T16:23:07Z</time>
      </trkpt>
      <trkpt lat="44.69849" lon="3.00523">
        <ele>1107</ele>
        <time>2022-02-09T16:24:44Z</time>
      </trkpt>
      <trkpt lat="44.69863" lon="3.00471">
        <ele>1107</ele>
        <time>2022-02-09T16:25:37Z</time>
      </trkpt>
      <trkpt lat="44.69904" lon="3.0045">
        <ele>1102</ele>
        <time>2022-02-09T16:26:35Z</time>
      </trkpt>
      <trkpt lat="44.69899" lon="3.00416">
        <ele>1102</ele>
        <time>2022-02-09T16:27:08Z</time>
      </trkpt>
      <trkpt lat="44.69912" lon="3.00386">
        <ele>1100</ele>
        <time>2022-02-09T16:27:41Z</time>
      </trkpt>
      <trkpt lat="44.69952" lon="3.00386">
        <ele>1095</ele>
        <time>2022-02-09T16:28:35Z</time>
      </trkpt>
      <trkpt lat="44.70039" lon="3.00471">
        <ele>1085</ele>
        <time>2022-02-09T16:30:56Z</time>
      </trkpt>
      <trkpt lat="44.70093" lon="3.00473">
        <ele>1084</ele>
        <time>2022-02-09T16:32:08Z</time>
      </trkpt>
      <trkpt lat="44.70164" lon="3.00456">
        <ele>1085</ele>
        <time>2022-02-09T16:33:44Z</time>
      </trkpt>
      <trkpt lat="44.70209" lon="3.00457">
        <ele>1089</ele>
        <time>2022-02-09T16:34:44Z</time>
      </trkpt>
      <trkpt lat="44.70243" lon="3.00473">
        <ele>1092</ele>
        <time>2022-02-09T16:35:32Z</time>
      </trkpt>
      <trkpt lat="44.7047" lon="3.00524">
        <ele>1094</ele>
        <time>2022-02-09T16:40:39Z</time>
      </trkpt>
      <trkpt lat="44.70487" lon="3.00505">
        <ele>1093</ele>
        <time>2022-02-09T16:41:08Z</time>
      </trkpt>
      <trkpt lat="44.70495" lon="3.00459">
        <ele>1096</ele>
        <time>2022-02-09T16:41:53Z</time>
      </trkpt>
      <trkpt lat="44.70529" lon="3.00508">
        <ele>1097</ele>
        <time>2022-02-09T16:42:58Z</time>
      </trkpt>
      <trkpt lat="44.70592" lon="3.00461">
        <ele>1104</ele>
        <time>2022-02-09T16:44:33Z</time>
      </trkpt>
      <trkpt lat="44.7069" lon="3.00461">
        <ele>1119</ele>
        <time>2022-02-09T16:46:44Z</time>
      </trkpt>
      <trkpt lat="44.70922" lon="3.00392">
        <ele>1128</ele>
        <time>2022-02-09T16:52:00Z</time>
      </trkpt>
      <trkpt lat="44.70959" lon="3.00339">
        <ele>1129</ele>
        <time>2022-02-09T16:53:11Z</time>
      </trkpt>
      <trkpt lat="44.71021" lon="3.00316">
        <ele>1131</ele>
        <time>2022-02-09T16:54:36Z</time>
      </trkpt>
      <trkpt lat="44.71076" lon="3.00315">
        <ele>1132</ele>
        <time>2022-02-09T16:55:50Z</time>
      </trkpt>
      <trkpt lat="44.71102" lon="3.00279">
        <ele>1129</ele>
        <time>2022-02-09T16:56:38Z</time>
      </trkpt>
      <trkpt lat="44.71133" lon="3.00274">
        <ele>1127</ele>
        <time>2022-02-09T16:57:20Z</time>
      </trkpt>
      <trkpt lat="44.71139" lon="3.00317">
        <ele>1128</ele>
        <time>2022-02-09T16:58:01Z</time>
      </trkpt>
      <trkpt lat="44.71166" lon="3.00359">
        <ele>1127</ele>
        <time>2022-02-09T16:58:55Z</time>
      </trkpt>
      <trkpt lat="44.71275" lon="3.00361">
        <ele>1123</ele>
        <time>2022-02-09T17:01:21Z</time>
      </trkpt>
      <trkpt lat="44.71305" lon="3.00375">
        <ele>1123</ele>
        <time>2022-02-09T17:02:03Z</time>
      </trkpt>
      <trkpt lat="44.71399" lon="3.00352">
        <ele>1123</ele>
        <time>2022-02-09T17:04:10Z</time>
      </trkpt>
      <trkpt lat="44.71386" lon="3.00294">
        <ele>1121</ele>
        <time>2022-02-09T17:05:08Z</time>
      </trkpt>
      <trkpt lat="44.71555" lon="3.00252">
        <ele>1118</ele>
        <time>2022-02-09T17:08:57Z</time>
      </trkpt>
      <trkpt lat="44.71588" lon="3.00209">
        <ele>1118</ele>
        <time>2022-02-09T17:09:57Z</time>
      </trkpt>
      <trkpt lat="44.7158" lon="3.00095">
        <ele>1123</ele>
        <time>2022-02-09T17:11:45Z</time>
      </trkpt>
      <trkpt lat="44.71598" lon="3.00006">
        <ele>1133</ele>
        <time>2022-02-09T17:13:13Z</time>
      </trkpt>
      <trkpt lat="44.71596" lon="2.99976">
        <ele>1135</ele>
        <time>2022-02-09T17:13:42Z</time>
      </trkpt>
      <trkpt lat="44.71562" lon="2.9994">
        <ele>1140</ele>
        <time>2022-02-09T17:14:39Z</time>
      </trkpt>
      <trkpt lat="44.71394" lon="2.99883">
        <ele>1149</ele>
        <time>2022-02-09T17:18:29Z</time>
      </trkpt>
      <trkpt lat="44.71365" lon="2.99857">
        <ele>1148</ele>
        <time>2022-02-09T17:19:15Z</time>
      </trkpt>
      <trkpt lat="44.71315" lon="2.99812">
        <ele>1147</ele>
        <time>2022-02-09T17:20:34Z</time>
      </trkpt>
      <trkpt lat="44.71214" lon="2.99774">
        <ele>1146</ele>
        <time>2022-02-09T17:22:54Z</time>
      </trkpt>
      <trkpt lat="44.71121" lon="2.99747">
        <ele>1146</ele>
        <time>2022-02-09T17:25:00Z</time>
      </trkpt>
      <trkpt lat="44.71009" lon="2.99681">
        <ele>1158</ele>
        <time>2022-02-09T17:27:43Z</time>
      </trkpt>
      <trkpt lat="44.70999" lon="2.9964">
        <ele>1161</ele>
        <time>2022-02-09T17:28:24Z</time>
      </trkpt>
      <trkpt lat="44.70919" lon="2.9949">
        <ele>1170</ele>
        <time>2022-02-09T17:31:21Z</time>
      </trkpt>
      <trkpt lat="44.70832" lon="2.99385">
        <ele>1173</ele>
        <time>2022-02-09T17:33:54Z</time>
      </trkpt>
      <trkpt lat="44.70705" lon="2.99265">
        <ele>1178</ele>
        <time>2022-02-09T17:37:19Z</time>
      </trkpt>
      <trkpt lat="44.70594" lon="2.99177">
        <ele>1182</ele>
        <time>2022-02-09T17:40:09Z</time>
      </trkpt>
      <trkpt lat="44.70501" lon="2.9908">
        <ele>1189</ele>
        <time>2022-02-09T17:42:43Z</time>
      </trkpt>
      <trkpt lat="44.70302" lon="2.98925">
        <ele>1189</ele>
        <time>2022-02-09T17:47:47Z</time>
      </trkpt>
      <trkpt lat="44.70239" lon="2.98856">
        <ele>1189</ele>
        <time>2022-02-09T17:49:33Z</time>
      </trkpt>
      <trkpt lat="44.70143" lon="2.98783">
        <ele>1189</ele>
        <time>2022-02-09T17:51:59Z</time>
      </trkpt>
      <trkpt lat="44.70046" lon="2.98753">
        <ele>1190</ele>
        <time>2022-02-09T17:54:11Z</time>
      </trkpt>
      <trkpt lat="44.69993" lon="2.9873">
        <ele>1191</ele>
        <time>2022-02-09T17:55:25Z</time>
      </trkpt>
      <trkpt lat="44.70005" lon="2.98865">
        <ele>1188</ele>
        <time>2022-02-09T17:57:34Z</time>
      </trkpt>
      <trkpt lat="44.69988" lon="2.98936">
        <ele>1186</ele>
        <time>2022-02-09T17:58:45Z</time>
      </trkpt>
      <trkpt lat="44.69889" lon="2.99064">
        <ele>1182</ele>
        <time>2022-02-09T18:01:45Z</time>
      </trkpt>
      <trkpt lat="44.69852" lon="2.99125">
        <ele>1179</ele>
        <time>2022-02-09T18:03:01Z</time>
      </trkpt>
      <trkpt lat="44.69792" lon="2.99154">
        <ele>1179</ele>
        <time>2022-02-09T18:04:26Z</time>
      </trkpt>
      <trkpt lat="44.69779" lon="2.99194">
        <ele>1177</ele>
        <time>2022-02-09T18:05:07Z</time>
      </trkpt>
      <trkpt lat="44.69785" lon="2.99247">
        <ele>1175</ele>
        <time>2022-02-09T18:05:58Z</time>
      </trkpt>
      <trkpt lat="44.69726" lon="2.99247">
        <ele>1177</ele>
        <time>2022-02-09T18:07:17Z</time>
      </trkpt>
      <trkpt lat="44.69599" lon="2.99199">
        <ele>1181</ele>
        <time>2022-02-09T18:10:12Z</time>
      </trkpt>
      <trkpt lat="44.69581" lon="2.99161">
        <ele>1181</ele>
        <time>2022-02-09T18:10:56Z</time>
      </trkpt>
      <trkpt lat="44.69551" lon="2.99122">
        <ele>1183</ele>
        <time>2022-02-09T18:11:50Z</time>
      </trkpt>
      <trkpt lat="44.69462" lon="2.99091">
        <ele>1182</ele>
        <time>2022-02-09T18:13:53Z</time>
      </trkpt>
      <trkpt lat="44.69436" lon="2.99087">
        <ele>1181</ele>
        <time>2022-02-09T18:14:28Z</time>
      </trkpt>
      <trkpt lat="44.6939" lon="2.99132">
        <ele>1176</ele>
        <time>2022-02-09T18:15:42Z</time>
      </trkpt>
      <trkpt lat="44.69334" lon="2.99137">
        <ele>1172</ele>
        <time>2022-02-09T18:16:57Z</time>
      </trkpt>
      <trkpt lat="44.69298" lon="2.99123">
        <ele>1170</ele>
        <time>2022-02-09T18:17:47Z</time>
      </trkpt>
      <trkpt lat="44.69254" lon="2.99075">
        <ele>1170</ele>
        <time>2022-02-09T18:19:01Z</time>
      </trkpt>
      <trkpt lat="44.69185" lon="2.99052">
        <ele>1170</ele>
        <time>2022-02-09T18:20:36Z</time>
      </trkpt>
      <trkpt lat="44.69095" lon="2.9908">
        <ele>1170</ele>
        <time>2022-02-09T18:22:39Z</time>
      </trkpt>
      <trkpt lat="44.69023" lon="2.99046">
        <ele>1174</ele>
        <time>2022-02-09T18:24:20Z</time>
      </trkpt>
      <trkpt lat="44.68945" lon="2.99051">
        <ele>1176</ele>
        <time>2022-02-09T18:26:05Z</time>
      </trkpt>
      <trkpt lat="44.68912" lon="2.99083">
        <ele>1176</ele>
        <time>2022-02-09T18:26:58Z</time>
      </trkpt>
      <trkpt lat="44.68722" lon="2.99186">
        <ele>1194</ele>
        <time>2022-02-09T18:31:30Z</time>
      </trkpt>
      <trkpt lat="44.68655" lon="2.99159">
        <ele>1203</ele>
        <time>2022-02-09T18:33:03Z</time>
      </trkpt>
      <trkpt lat="44.68505" lon="2.99036">
        <ele>1213</ele>
        <time>2022-02-09T18:36:54Z</time>
      </trkpt>
      <trkpt lat="44.68426" lon="2.9899">
        <ele>1213</ele>
        <time>2022-02-09T18:38:49Z</time>
      </trkpt>
      <trkpt lat="44.68377" lon="2.98858">
        <ele>1216</ele>
        <time>2022-02-09T18:41:10Z</time>
      </trkpt>
      <trkpt lat="44.68303" lon="2.98705">
        <ele>1217</ele>
        <time>2022-02-09T18:44:05Z</time>
      </trkpt>
      <trkpt lat="44.68243" lon="2.98649">
        <ele>1216</ele>
        <time>2022-02-09T18:45:42Z</time>
      </trkpt>
      <trkpt lat="44.68209" lon="2.98638">
        <ele>1218</ele>
        <time>2022-02-09T18:46:28Z</time>
      </trkpt>
      <trkpt lat="44.68115" lon="2.98652">
        <ele>1219</ele>
        <time>2022-02-09T18:48:34Z</time>
      </trkpt>
      <trkpt lat="44.67991" lon="2.98593">
        <ele>1227</ele>
        <time>2022-02-09T18:51:29Z</time>
      </trkpt>
      <trkpt lat="44.67889" lon="2.98487">
        <ele>1227</ele>
        <time>2022-02-09T18:54:18Z</time>
      </trkpt>
      <trkpt lat="44.67796" lon="2.9837">
        <ele>1233</ele>
        <time>2022-02-09T18:57:05Z</time>
      </trkpt>
      <trkpt lat="44.67747" lon="2.98356">
        <ele>1235</ele>
        <time>2022-02-09T18:58:11Z</time>
      </trkpt>
      <trkpt lat="44.67706" lon="2.98361">
        <ele>1233</ele>
        <time>2022-02-09T18:59:06Z</time>
      </trkpt>
      <trkpt lat="44.67666" lon="2.98343">
        <ele>1235</ele>
        <time>2022-02-09T19:00:02Z</time>
      </trkpt>
      <trkpt lat="44.67524" lon="2.98265">
        <ele>1228</ele>
        <time>2022-02-09T19:03:26Z</time>
      </trkpt>
      <trkpt lat="44.67477" lon="2.98216">
        <ele>1228</ele>
        <time>2022-02-09T19:04:44Z</time>
      </trkpt>
      <trkpt lat="44.67386" lon="2.98007">
        <ele>1237</ele>
        <time>2022-02-09T19:08:36Z</time>
      </trkpt>
      <trkpt lat="44.67317" lon="2.97933">
        <ele>1234</ele>
        <time>2022-02-09T19:10:32Z</time>
      </trkpt>
      <trkpt lat="44.67286" lon="2.97934">
        <ele>1234</ele>
        <time>2022-02-09T19:11:14Z</time>
      </trkpt>
      <trkpt lat="44.67273" lon="2.97964">
        <ele>1234</ele>
        <time>2022-02-09T19:11:47Z</time>
      </trkpt>
      <trkpt lat="44.67251" lon="2.98105">
        <ele>1229</ele>
        <time>2022-02-09T19:14:04Z</time>
      </trkpt>
      <trkpt lat="44.6723" lon="2.98204">
        <ele>1222</ele>
        <time>2022-02-09T19:15:42Z</time>
      </trkpt>
      <trkpt lat="44.67173" lon="2.98197">
        <ele>1226</ele>
        <time>2022-02-09T19:16:58Z</time>
      </trkpt>
      <trkpt lat="44.67119" lon="2.98188">
        <ele>1232</ele>
        <time>2022-02-09T19:18:11Z</time>
      </trkpt>
      <trkpt lat="44.67034" lon="2.98204">
        <ele>1243</ele>
        <time>2022-02-09T19:20:05Z</time>
      </trkpt>
      <trkpt lat="44.67002" lon="2.98331">
        <ele>1247</ele>
        <time>2022-02-09T19:22:13Z</time>
      </trkpt>
      <trkpt lat="44.66992" lon="2.98382">
        <ele>1250</ele>
        <time>2022-02-09T19:23:03Z</time>
      </trkpt>
      <trkpt lat="44.66935" lon="2.98474">
        <ele>1259</ele>
        <time>2022-02-09T19:24:59Z</time>
      </trkpt>
      <trkpt lat="44.6691" lon="2.98542">
        <ele>1264</ele>
        <time>2022-02-09T19:26:12Z</time>
      </trkpt>
      <trkpt lat="44.66936" lon="2.98684">
        <ele>1264</ele>
        <time>2022-02-09T19:28:31Z</time>
      </trkpt>
      <trkpt lat="44.66936" lon="2.98797">
        <ele>1265</ele>
        <time>2022-02-09T19:30:18Z</time>
      </trkpt>
      <trkpt lat="44.66976" lon="2.99039">
        <ele>1262</ele>
        <time>2022-02-09T19:34:14Z</time>
      </trkpt>
      <trkpt lat="44.67155" lon="2.9933">
        <ele>1250</ele>
        <time>2022-02-09T19:40:19Z</time>
      </trkpt>
      <trkpt lat="44.67195" lon="2.9937">
        <ele>1245</ele>
        <time>2022-02-09T19:41:25Z</time>
      </trkpt>
      <trkpt lat="44.67224" lon="2.99436">
        <ele>1245</ele>
        <time>2022-02-09T19:42:38Z</time>
      </trkpt>
      <trkpt lat="44.67257" lon="2.99482">
        <ele>1243</ele>
        <time>2022-02-09T19:43:40Z</time>
      </trkpt>
      <trkpt lat="44.67261" lon="2.99567">
        <ele>1250</ele>
        <time>2022-02-09T19:45:01Z</time>
      </trkpt>
      <trkpt lat="44.67258" lon="2.99597">
        <ele>1253</ele>
        <time>2022-02-09T19:45:30Z</time>
      </trkpt>
      <trkpt lat="44.67222" lon="2.99517">
        <ele>1254</ele>
        <time>2022-02-09T19:47:00Z</time>
      </trkpt>
      <trkpt lat="44.67172" lon="2.99489">
        <ele>1264</ele>
        <time>2022-02-09T19:48:12Z</time>
      </trkpt>
      <trkpt lat="44.67162" lon="2.995">
        <ele>1267</ele>
        <time>2022-02-09T19:48:28Z</time>
      </trkpt>
      <trkpt lat="44.67174" lon="2.9953">
        <ele>1266</ele>
        <time>2022-02-09T19:49:01Z</time>
      </trkpt>
      <trkpt lat="44.67178" lon="2.99627">
        <ele>1270</ele>
        <time>2022-02-09T19:50:33Z</time>
      </trkpt>
      <trkpt lat="44.67202" lon="2.99621">
        <ele>1265</ele>
        <time>2022-02-09T19:51:06Z</time>
      </trkpt>
      <trkpt lat="44.67224" lon="2.9965">
        <ele>1262</ele>
        <time>2022-02-09T19:51:46Z</time>
      </trkpt>
      <trkpt lat="44.67256" lon="2.99697">
        <ele>1256</ele>
        <time>2022-02-09T19:52:48Z</time>
      </trkpt>
      <trkpt lat="44.67279" lon="2.99778">
        <ele>1248</ele>
        <time>2022-02-09T19:54:11Z</time>
      </trkpt>
      <trkpt lat="44.67457" lon="2.99866">
        <ele>1221</ele>
        <time>2022-02-09T19:58:22Z</time>
      </trkpt>
      <trkpt lat="44.67557" lon="2.99943">
        <ele>1213</ele>
        <time>2022-02-09T20:00:55Z</time>
      </trkpt>
      <trkpt lat="44.67676" lon="2.9997">
        <ele>1202</ele>
        <time>2022-02-09T20:03:35Z</time>
      </trkpt>
      <trkpt lat="44.67759" lon="2.99999">
        <ele>1196</ele>
        <time>2022-02-09T20:05:30Z</time>
      </trkpt>
      <trkpt lat="44.67876" lon="3.00029">
        <ele>1187</ele>
        <time>2022-02-09T20:08:08Z</time>
      </trkpt>
      <trkpt lat="44.67927" lon="3.00086">
        <ele>1185</ele>
        <time>2022-02-09T20:09:35Z</time>
      </trkpt>
      <trkpt lat="44.68006" lon="3.00113">
        <ele>1177</ele>
        <time>2022-02-09T20:11:24Z</time>
      </trkpt>
      <trkpt lat="44.68035" lon="3.00094">
        <ele>1171</ele>
        <time>2022-02-09T20:12:06Z</time>
      </trkpt>
      <trkpt lat="44.68129" lon="3.00125">
        <ele>1164</ele>
        <time>2022-02-09T20:14:15Z</time>
      </trkpt>
      <trkpt lat="44.68197" lon="3.00116">
        <ele>1160</ele>
        <time>2022-02-09T20:15:46Z</time>
      </trkpt>
      <trkpt lat="44.68246" lon="3.00097">
        <ele>1158</ele>
        <time>2022-02-09T20:16:54Z</time>
      </trkpt>
      <trkpt lat="44.68288" lon="3.00066">
        <ele>1157</ele>
        <time>2022-02-09T20:17:57Z</time>
      </trkpt>
      <trkpt lat="44.68367" lon="2.99994">
        <ele>1157</ele>
        <time>2022-02-09T20:20:03Z</time>
      </trkpt>
      <trkpt lat="44.68631" lon="2.99868">
        <ele>1145</ele>
        <time>2022-02-09T20:26:15Z</time>
      </trkpt>
      <trkpt lat="44.68791" lon="3.00048">
        <ele>1125</ele>
        <time>2022-02-09T20:30:49Z</time>
      </trkpt>
      <trkpt lat="44.68865" lon="3.00045">
        <ele>1119</ele>
        <time>2022-02-09T20:32:27Z</time>
      </trkpt>
      <trkpt lat="44.69025" lon="3.00109">
        <ele>1101</ele>
        <time>2022-02-09T20:36:09Z</time>
      </trkpt>
      <trkpt lat="44.69084" lon="3.00147">
        <ele>1097</ele>
        <time>2022-02-09T20:37:36Z</time>
      </trkpt>
      <trkpt lat="44.69129" lon="3.00193">
        <ele>1094</ele>
        <time>2022-02-09T20:38:50Z</time>
      </trkpt>
      <trkpt lat="44.69205" lon="3.00209">
        <ele>1092</ele>
        <time>2022-02-09T20:40:33Z</time>
      </trkpt>
      <trkpt lat="44.6925" lon="3.00249">
        <ele>1091</ele>
        <time>2022-02-09T20:41:44Z</time>
      </trkpt>
      <trkpt lat="44.69288" lon="3.0026">
        <ele>1092</ele>
        <time>2022-02-09T20:42:36Z</time>
      </trkpt>
      <trkpt lat="44.6931" lon="3.00296">
        <ele>1090</ele>
        <time>2022-02-09T20:43:21Z</time>
      </trkpt>
      <trkpt lat="44.69416" lon="3.0036">
        <ele>1089</ele>
        <time>2022-02-09T20:45:54Z</time>
      </trkpt>
      <trkpt lat="44.69503" lon="3.00441">
        <ele>1082</ele>
        <time>2022-02-09T20:48:14Z</time>
      </trkpt>
      <trkpt lat="44.69517" lon="3.00475">
        <ele>1080</ele>
        <time>2022-02-09T20:48:51Z</time>
      </trkpt>
      <trkpt lat="44.69541" lon="3.00505">
        <ele>1079</ele>
        <time>2022-02-09T20:49:34Z</time>
      </trkpt>
      <trkpt lat="44.69582" lon="3.00507">
        <ele>1082</ele>
        <time>2022-02-09T20:50:29Z</time>
      </trkpt>
      <trkpt lat="44.69621" lon="3.00514">
        <ele>1086</ele>
        <time>2022-02-09T20:51:21Z</time>
      </trkpt>
      <trkpt lat="44.69731" lon="3.00555">
        <ele>1098</ele>
        <time>2022-02-09T20:53:53Z</time>
      </trkpt>
      <trkpt lat="44.69769" lon="3.00504">
        <ele>1109</ele>
        <time>2022-02-09T20:55:03Z</time>
      </trkpt>
    </trkseg>
  </trk>
</gpx>